Time;durP1;ratioP1;P1;durP2;ratioP2;P2;SDS_P1;SDS_P2;PMS_P1;PMS_P2;Temp;Humidity;BMP_temperature;BMP_pressure;BME280_temperature;BME280_humidity;BME280_pressure;Samples;Min_cycle;Max_cycle;Signal;HPM_P1;HPM_P2
2021/12/14 00:01:46;;;;;;;20.42;13.48;;;8.20;99.90;;;;;;4996470;28;20046;-45
2021/12/14 00:04:24;;;;;;;18.50;13.80;;;8.10;99.90;;;;;;4995924;28;20363;-52
2021/12/14 00:06:50;;;;;;;27.65;14.27;;;8.10;99.90;;;;;;4995944;28;20054;-49
2021/12/14 00:09:35;;;;;;;21.95;14.02;;;8.10;99.90;;;;;;4995560;28;20030;-49
2021/12/14 00:15:03;;;;;;;25.80;12.65;;;8.10;99.90;;;;;;4995576;28;20030;-52
2021/12/14 00:17:35;;;;;;;20.67;13.05;;;8.10;99.90;;;;;;4994761;28;20105;-46
2021/12/14 00:20:04;;;;;;;17.48;12.55;;;8.10;99.90;;;;;;4994836;28;20018;-46
2021/12/14 00:24:06;;;;;;;35.90;21.10;;;8.20;99.90;;;;;;4995263;28;20022;-49
2021/12/14 00:25:42;;;;;;;33.88;19.67;;;8.20;99.90;;;;;;4994879;28;20410;-48
2021/12/14 00:28:18;;;;;;;22.23;13.57;;;8.30;99.90;;;;;;4994954;28;20042;-50
2021/12/14 00:30:46;;;;;;;23.05;12.43;;;8.30;99.90;;;;;;4994230;28;20030;-45
2021/12/14 00:33:15;;;;;;;21.98;13.45;;;8.40;99.90;;;;;;4994419;28;20041;-51
2021/12/14 00:35:42;;;;;;;15.20;12.18;;;8.40;99.90;;;;;;4995395;28;20023;-45
2021/12/14 00:38:10;;;;;;;18.63;12.07;;;8.30;99.90;;;;;;4995053;28;20058;-50
2021/12/14 00:40:42;;;;;;;25.23;14.07;;;8.20;99.90;;;;;;4994471;28;20548;-44
2021/12/14 00:43:09;;;;;;;19.48;12.82;;;8.20;99.90;;;;;;4994870;28;20300;-50
2021/12/14 00:45:39;;;;;;;19.65;13.55;;;8.20;99.90;;;;;;4994493;28;20092;-48
2021/12/14 00:48:06;;;;;;;19.83;13.57;;;8.20;99.90;;;;;;4994450;28;20045;-47
2021/12/14 00:50:33;;;;;;;24.15;14.68;;;8.20;99.90;;;;;;4994338;28;20395;-46
2021/12/14 00:52:59;;;;;;;20.60;13.68;;;8.30;99.90;;;;;;4994410;28;20037;-49
2021/12/14 00:55:30;;;;;;;19.80;13.18;;;8.30;99.90;;;;;;4994590;28;20022;-52
2021/12/14 00:57:56;;;;;;;21.02;13.57;;;8.20;99.90;;;;;;4994392;28;20027;-47
2021/12/14 01:00:27;;;;;;;18.58;13.85;;;8.20;99.90;;;;;;4993996;28;20034;-50
2021/12/14 01:02:53;;;;;;;21.65;14.00;;;8.10;99.90;;;;;;4994449;28;20026;-49
2021/12/14 01:05:23;;;;;;;21.05;12.88;;;8.20;99.90;;;;;;4994433;28;20477;-49
2021/12/14 01:07:49;;;;;;;15.93;12.70;;;8.10;99.90;;;;;;4994404;28;20398;-48
2021/12/14 01:10:24;;;;;;;24.73;13.93;;;8.10;99.90;;;;;;4994248;28;20025;-48
2021/12/14 01:12:54;;;;;;;18.10;12.63;;;8.20;99.90;;;;;;4994857;28;20719;-45
2021/12/14 01:21:39;;;;;;;17.52;12.20;;;8.20;99.90;;;;;;4994050;28;20034;-45
2021/12/14 01:24:34;;;;;;;21.13;13.57;;;8.20;99.90;;;;;;4993872;28;20022;-46
2021/12/14 01:27:00;;;;;;;37.05;14.15;;;8.30;99.90;;;;;;4993915;28;20573;-48
2021/12/14 01:29:26;;;;;;;16.88;12.82;;;8.40;99.90;;;;;;4993499;28;20038;-45
2021/12/14 01:31:58;;;;;;;17.85;12.02;;;8.40;99.90;;;;;;4993363;28;20073;-49
2021/12/14 01:34:23;;;;;;;16.40;13.13;;;8.40;99.90;;;;;;4993870;28;20114;-49
2021/12/14 01:36:55;;;;;;;18.73;13.48;;;8.40;99.90;;;;;;4993611;28;20457;-50
2021/12/14 01:42:04;;;;;;;17.52;12.88;;;8.30;99.90;;;;;;4991074;28;20089;-45
2021/12/14 01:44:39;;;;;;;20.13;12.45;;;8.20;99.90;;;;;;4994006;28;20022;-47
2021/12/14 01:47:22;;;;;;;17.65;13.70;;;8.20;99.90;;;;;;4994404;28;20022;-50
2021/12/14 01:49:49;;;;;;;20.50;14.50;;;8.20;99.90;;;;;;4993461;28;20034;-51
2021/12/14 01:52:23;;;;;;;25.10;14.48;;;8.30;99.90;;;;;;4992397;28;20033;-48
2021/12/14 01:54:54;;;;;;;18.52;13.85;;;8.20;99.90;;;;;;4992572;28;20058;-51
2021/12/14 01:57:22;;;;;;;21.55;14.23;;;8.30;99.90;;;;;;4993757;28;20044;-47
2021/12/14 01:59:49;;;;;;;20.95;13.82;;;8.30;99.90;;;;;;4993295;28;20025;-47
2021/12/14 02:02:31;;;;;;;21.30;14.57;;;8.40;99.90;;;;;;4993510;28;20080;-45
2021/12/14 02:05:00;;;;;;;24.77;16.10;;;8.30;99.90;;;;;;4993205;28;20038;-44
2021/12/14 02:07:27;;;;;;;19.95;15.38;;;8.30;99.90;;;;;;4993444;28;20045;-48
2021/12/14 02:10:02;;;;;;;25.60;17.40;;;8.30;99.90;;;;;;4993004;28;20148;-50
2021/12/14 02:12:30;;;;;;;22.05;15.20;;;8.30;99.90;;;;;;4993861;28;20097;-52
2021/12/14 02:15:21;;;;;;;24.20;16.50;;;8.40;99.90;;;;;;4993482;28;20112;-46
2021/12/14 02:17:48;;;;;;;23.23;15.30;;;8.40;99.90;;;;;;4993394;28;20092;-52
2021/12/14 02:20:17;;;;;;;22.02;16.02;;;8.30;99.90;;;;;;4991638;28;20027;-50
2021/12/14 02:22:43;;;;;;;25.23;16.42;;;8.40;99.90;;;;;;4993192;28;20037;-50
2021/12/14 02:25:10;;;;;;;25.13;15.98;;;8.30;99.90;;;;;;4993246;28;20030;-46
2021/12/14 02:27:42;;;;;;;26.85;17.17;;;8.30;99.90;;;;;;4993528;28;20037;-51
2021/12/14 02:30:12;;;;;;;21.45;14.55;;;8.30;99.90;;;;;;4991457;28;20486;-50
2021/12/14 02:32:37;;;;;;;20.60;14.35;;;8.30;99.90;;;;;;4991179;28;20486;-50
2021/12/14 02:35:07;;;;;;;25.70;16.17;;;8.30;99.90;;;;;;4993278;28;20029;-49
2021/12/14 02:37:38;;;;;;;23.00;16.02;;;8.30;99.90;;;;;;4991422;28;20117;-50
2021/12/14 02:40:19;;;;;;;26.38;16.50;;;8.20;99.90;;;;;;4992433;28;20038;-50
2021/12/14 02:42:50;;;;;;;23.05;16.02;;;8.30;99.90;;;;;;4992794;28;20053;-49
2021/12/14 02:45:20;;;;;;;22.77;16.88;;;8.30;99.90;;;;;;4991483;28;20259;-49
2021/12/14 02:47:46;;;;;;;27.98;16.20;;;8.30;99.90;;;;;;4993343;28;20029;-54
2021/12/14 02:50:12;;;;;;;30.85;16.95;;;8.30;99.90;;;;;;4992354;28;20027;-48
2021/12/14 02:52:38;;;;;;;26.38;17.17;;;8.30;99.90;;;;;;4992660;28;20073;-52
2021/12/14 02:55:15;;;;;;;28.38;17.17;;;8.30;99.90;;;;;;4991462;28;20399;-50
2021/12/14 02:57:50;;;;;;;25.25;17.67;;;8.30;99.90;;;;;;4991262;28;20022;-51
2021/12/14 03:00:21;;;;;;;25.70;17.23;;;8.20;99.90;;;;;;4992408;28;20054;-47
2021/12/14 03:02:48;;;;;;;26.73;17.90;;;8.20;99.90;;;;;;4991316;28;20034;-47
2021/12/14 03:05:24;;;;;;;26.33;19.00;;;8.20;99.90;;;;;;4991210;28;20030;-50
2021/12/14 03:07:55;;;;;;;28.08;19.30;;;8.10;99.90;;;;;;4992470;28;20089;-50
2021/12/14 03:12:59;;;;;;;28.50;19.13;;;8.10;99.90;;;;;;4992422;28;20038;-51
2021/12/14 03:15:47;;;;;;;27.15;19.25;;;8.20;99.90;;;;;;4992570;28;20033;-50
2021/12/14 03:18:15;;;;;;;31.35;20.23;;;8.20;99.90;;;;;;4992157;28;20042;-49
2021/12/14 03:20:54;;;;;;;28.30;20.00;;;8.30;99.90;;;;;;4992041;28;20053;-50
2021/12/14 03:23:26;;;;;;;28.23;19.98;;;8.30;99.90;;;;;;4991095;28;20124;-49
2021/12/14 03:25:54;;;;;;;29.15;19.50;;;8.30;99.90;;;;;;4992331;28;20072;-51
2021/12/14 03:28:22;;;;;;;29.45;20.77;;;8.30;99.90;;;;;;4992257;28;20390;-50
2021/12/14 03:30:48;;;;;;;27.70;19.80;;;8.30;99.90;;;;;;4990546;28;20022;-50
2021/12/14 03:33:18;;;;;;;26.67;20.13;;;8.30;99.90;;;;;;4990331;28;20387;-47
2021/12/14 03:35:56;;;;;;;32.50;19.63;;;8.30;99.90;;;;;;4992079;28;20102;-47
2021/12/14 03:38:32;;;;;;;29.48;20.23;;;8.30;99.90;;;;;;4992184;28;20160;-48
2021/12/14 03:41:06;;;;;;;28.88;19.70;;;8.30;99.90;;;;;;4991527;28;20092;-48
2021/12/14 03:43:33;;;;;;;27.65;19.35;;;8.30;99.90;;;;;;4992126;28;20028;-51
2021/12/14 03:45:59;;;;;;;34.78;20.98;;;8.30;99.90;;;;;;4990725;28;20026;-47
2021/12/14 03:48:28;;;;;;;31.33;20.25;;;8.30;99.90;;;;;;4992113;28;20038;-48
2021/12/14 03:50:54;;;;;;;29.00;20.52;;;8.30;99.90;;;;;;4991638;28;20066;-48
2021/12/14 03:53:21;;;;;;;33.05;21.73;;;8.30;99.90;;;;;;4991968;28;20030;-49
2021/12/14 03:55:51;;;;;;;29.75;20.75;;;8.30;99.90;;;;;;4990653;28;20169;-51
2021/12/14 03:58:20;;;;;;;32.90;22.80;;;8.20;99.90;;;;;;4991859;28;20375;-48
2021/12/14 04:00:59;;;;;;;30.23;20.20;;;8.20;99.90;;;;;;4991833;28;20418;-50
2021/12/14 04:03:27;;;;;;;28.67;21.38;;;8.20;99.90;;;;;;4991903;28;20037;-53
2021/12/14 04:05:54;;;;;;;31.50;21.52;;;8.10;99.90;;;;;;4991762;28;20512;-49
2021/12/14 04:08:21;;;;;;;34.38;21.35;;;8.10;99.90;;;;;;4990551;28;20030;-52
2021/12/14 04:10:49;;;;;;;36.95;21.83;;;8.10;99.90;;;;;;4991356;28;20027;-50
2021/12/14 04:13:22;;;;;;;35.10;21.98;;;8.10;99.90;;;;;;4991805;28;20038;-51
2021/12/14 04:15:48;;;;;;;37.50;22.02;;;8.10;99.90;;;;;;4991850;28;20061;-48
2021/12/14 04:18:14;;;;;;;32.60;21.48;;;8.00;99.90;;;;;;4990558;28;20408;-50
2021/12/14 04:20:42;;;;;;;31.38;20.23;;;8.00;99.90;;;;;;4991561;28;20053;-48
2021/12/14 04:23:16;;;;;;;31.15;21.15;;;7.90;99.90;;;;;;4991674;28;20018;-47
2021/12/14 04:25:46;;;;;;;30.80;22.23;;;8.00;99.90;;;;;;4991482;28;20042;-48
2021/12/14 04:28:15;;;;;;;33.00;22.15;;;8.10;99.90;;;;;;4993092;28;20026;-52
2021/12/14 04:30:41;;;;;;;30.48;21.60;;;8.00;99.90;;;;;;4994954;28;20142;-51
2021/12/14 04:33:11;;;;;;;34.75;22.05;;;8.10;99.90;;;;;;4993410;28;20054;-49
2021/12/14 04:35:40;;;;;;;33.47;22.80;;;8.00;99.90;;;;;;4995249;28;20015;-49
2021/12/14 04:38:15;;;;;;;34.25;22.60;;;8.00;99.90;;;;;;4995237;28;20073;-50
2021/12/14 04:54:19;;;;;;;34.78;23.35;;;7.90;99.90;;;;;;4995040;28;20030;-50
2021/12/14 04:56:46;;;;;;;36.97;23.17;;;7.90;99.90;;;;;;4994976;28;20398;-49
2021/12/14 04:59:20;;;;;;;36.90;22.35;;;7.80;99.90;;;;;;4994638;28;20029;-55
2021/12/14 05:01:47;;;;;;;35.85;24.45;;;7.80;99.90;;;;;;4994839;28;20462;-51
2021/12/14 05:04:18;;;;;;;39.50;23.95;;;7.80;99.90;;;;;;4994874;28;20077;-54
2021/12/14 05:06:51;;;;;;;37.10;23.92;;;7.80;99.90;;;;;;4995016;28;20026;-50
2021/12/14 05:11:46;;;;;;;38.60;24.95;;;7.80;99.90;;;;;;4994642;28;20049;-51
2021/12/14 05:14:12;;;;;;;38.20;24.33;;;7.80;99.90;;;;;;4993531;28;20414;-50
2021/12/14 05:16:39;;;;;;;38.47;24.33;;;7.80;99.90;;;;;;4993277;28;20297;-50
2021/12/14 05:19:08;;;;;;;38.70;24.95;;;7.90;99.90;;;;;;4994347;28;20418;-48
2021/12/14 05:21:42;;;;;;;38.55;26.05;;;7.80;99.90;;;;;;4994256;28;20030;-46
2021/12/14 05:24:10;;;;;;;38.88;24.35;;;7.80;99.90;;;;;;4994443;28;20022;-48
2021/12/14 05:26:36;;;;;;;37.88;23.48;;;7.80;99.90;;;;;;4994428;28;20082;-52
2021/12/14 05:29:03;;;;;;;39.40;24.60;;;7.80;99.90;;;;;;4994478;28;20026;-50
2021/12/14 05:31:29;;;;;;;36.67;23.27;;;7.90;99.90;;;;;;4993477;28;20033;-52
2021/12/14 05:33:55;;;;;;;34.47;23.05;;;7.90;99.90;;;;;;4994573;28;20030;-50
2021/12/14 05:36:23;;;;;;;41.33;25.50;;;7.90;99.90;;;;;;4994079;28;20446;-48
2021/12/14 05:39:58;;;;;;;35.72;22.65;;;8.00;99.90;;;;;;4993642;28;20054;-49
2021/12/14 05:44:38;;;;;;;40.47;25.17;;;8.00;99.90;;;;;;4994311;28;20023;-49
2021/12/14 05:47:09;;;;;;;45.75;25.15;;;8.00;99.90;;;;;;4995321;28;20026;-55
2021/12/14 05:49:37;;;;;;;38.70;25.35;;;7.90;99.90;;;;;;4994177;28;20102;-54
2021/12/14 05:52:09;;;;;;;37.85;25.80;;;7.90;99.90;;;;;;4995774;28;20022;-52
2021/12/14 05:54:35;;;;;;;36.60;24.10;;;7.80;99.90;;;;;;4995386;28;20445;-51
2021/12/14 05:57:06;;;;;;;37.15;23.77;;;7.90;99.90;;;;;;4994659;28;20432;-50
2021/12/14 05:59:34;;;;;;;38.55;23.33;;;7.90;99.90;;;;;;4993519;28;20449;-48
2021/12/14 06:02:03;;;;;;;35.85;22.65;;;7.90;99.90;;;;;;4993649;28;20014;-51
2021/12/14 06:04:38;;;;;;;38.30;22.95;;;8.00;99.90;;;;;;4992772;28;20266;-50
2021/12/14 06:07:04;;;;;;;;;;;8.10;99.90;;;;;;4994775;28;20031;-53
2021/12/14 06:09:35;;;;;;;34.47;22.73;;;8.20;99.90;;;;;;4993198;28;20299;-50
2021/12/14 06:12:09;;;;;;;34.85;22.48;;;8.20;99.90;;;;;;4992245;28;20030;-49
2021/12/14 06:14:42;;;;;;;28.95;21.33;;;8.20;99.90;;;;;;4994056;28;20057;-50
2021/12/14 06:17:07;;;;;;;32.50;21.60;;;8.20;99.90;;;;;;4994213;28;20026;-52
2021/12/14 06:19:40;;;;;;;32.20;21.08;;;8.10;99.90;;;;;;4992071;28;20080;-51
2021/12/14 06:22:16;;;;;;;40.17;22.73;;;8.10;99.90;;;;;;4993379;28;20110;-54
2021/12/14 06:24:45;;;;;;;38.15;23.77;;;8.10;99.90;;;;;;4992114;28;20018;-47
2021/12/14 06:27:17;;;;;;;29.55;20.45;;;8.10;99.90;;;;;;4991757;28;20022;-47
2021/12/14 06:29:52;;;;;;;33.90;21.42;;;8.00;99.90;;;;;;4991416;28;20023;-49
2021/12/14 06:32:29;;;;;;;34.38;21.52;;;8.10;99.90;;;;;;4992814;28;20393;-48
2021/12/14 06:35:10;;;;;;;33.85;22.00;;;8.00;99.90;;;;;;4991731;28;20437;-50
2021/12/14 06:38:10;;;;;;;31.38;20.42;;;8.00;99.90;;;;;;4993011;28;20060;-49
2021/12/14 06:40:42;;;;;;;30.20;20.20;;;8.00;99.90;;;;;;4992606;28;20034;-52
2021/12/14 06:43:11;;;;;;;36.42;21.52;;;8.00;99.90;;;;;;4992897;28;20034;-49
2021/12/14 06:45:41;;;;;;;32.88;21.23;;;8.00;99.90;;;;;;4992758;28;20035;-49
2021/12/14 06:48:20;;;;;;;30.00;19.92;;;8.10;99.90;;;;;;4991908;28;20027;-51
2021/12/14 06:50:54;;;;;;;32.08;21.90;;;8.20;99.90;;;;;;4992266;28;20130;-50
2021/12/14 06:53:21;;;;;;;37.60;22.00;;;8.20;99.90;;;;;;4992671;28;20034;-47
2021/12/14 06:55:51;;;;;;;31.15;20.60;;;8.30;99.90;;;;;;4992777;28;20022;-49
2021/12/14 06:58:25;;;;;;;33.78;19.92;;;8.30;99.90;;;;;;4992840;28;20557;-53
2021/12/14 07:01:16;;;;;;;32.00;20.23;;;8.20;99.90;;;;;;4991489;28;20324;-49
2021/12/14 07:03:50;;;;;;;30.58;20.80;;;8.20;99.90;;;;;;4991054;28;20364;-47
2021/12/14 07:06:37;;;;;;;36.30;20.55;;;8.20;99.90;;;;;;4992414;28;20374;-53
2021/12/14 07:09:11;;;;;;;37.65;19.27;;;8.20;99.90;;;;;;4992752;28;20065;-49
2021/12/14 07:11:41;;;;;;;30.15;19.80;;;8.20;99.90;;;;;;4992263;28;20081;-50
2021/12/14 07:14:54;;;;;;;34.40;21.05;;;8.10;99.90;;;;;;4992290;28;20022;-50
2021/12/14 07:17:27;;;;;;;30.55;21.40;;;8.10;99.90;;;;;;4981762;28;20040;-47
2021/12/14 07:19:57;;;;;;;32.95;21.48;;;8.00;99.90;;;;;;4991854;28;20490;-50
2021/12/14 07:22:22;;;;;;;30.45;19.67;;;8.00;99.90;;;;;;4992113;28;20034;-49
2021/12/14 07:24:56;;;;;;;31.40;20.70;;;8.00;99.90;;;;;;4992567;28;20037;-48
2021/12/14 07:27:29;;;;;;;32.63;19.92;;;8.00;99.90;;;;;;4992236;28;20480;-50
2021/12/14 07:30:12;;;;;;;33.33;20.75;;;8.00;99.90;;;;;;4991761;28;20065;-52
2021/12/14 07:32:58;;;;;;;29.60;20.48;;;8.00;99.90;;;;;;4990136;28;20018;-51
2021/12/14 07:35:39;;;;;;;28.30;18.85;;;8.00;99.90;;;;;;4990079;28;20077;-55
2021/12/14 07:38:28;;;;;;;31.70;21.83;;;7.90;99.90;;;;;;4992157;28;20340;-51
2021/12/14 07:41:09;;;;;;;29.83;20.50;;;8.00;99.90;;;;;;5010600;23;20057;-46
2021/12/14 07:43:43;;;;;;;35.85;20.90;;;8.10;99.90;;;;;;4996181;28;20031;-45
2021/12/14 07:46:22;;;;;;;34.22;21.70;;;8.10;99.90;;;;;;4991808;28;20408;-45
2021/12/14 07:49:08;;;;;;;34.33;21.67;;;8.00;99.90;;;;;;4976010;28;20406;-47
2021/12/14 07:51:39;;;;;;;32.35;20.70;;;8.00;99.90;;;;;;4960716;28;20524;-49
2021/12/14 07:54:09;;;;;;;35.13;20.90;;;8.10;99.90;;;;;;4951833;28;20031;-46
2021/12/14 07:56:50;;;;;;;32.90;21.90;;;8.10;99.90;;;;;;4954075;28;20035;-44
2021/12/14 07:59:29;;;;;;;32.95;21.75;;;8.00;99.90;;;;;;4962522;28;20027;-44
2021/12/14 08:02:17;;;;;;;38.50;23.25;;;8.00;99.90;;;;;;4970480;28;20030;-46
2021/12/14 08:04:58;;;;;;;32.60;22.55;;;7.90;99.90;;;;;;4957223;28;20031;-45
2021/12/14 08:07:31;;;;;;;41.42;24.65;;;7.80;99.90;;;;;;4956942;29;20023;-45
2021/12/14 08:10:23;;;;;;;41.10;26.35;;;7.90;99.90;;;;;;4974231;28;20415;-48
2021/12/14 08:12:57;;;;;;;37.47;23.83;;;7.90;99.90;;;;;;4969010;28;20046;-46
2021/12/14 08:15:34;;;;;;;45.65;26.70;;;7.90;99.90;;;;;;4976561;28;20023;-46
2021/12/14 08:18:10;;;;;;;38.42;24.02;;;7.80;99.90;;;;;;4971881;28;20382;-45
2021/12/14 08:20:43;;;;;;;42.42;26.10;;;7.80;99.90;;;;;;4975248;28;20031;-46
2021/12/14 08:23:14;;;;;;;42.22;27.50;;;7.80;99.90;;;;;;4975543;28;20032;-49
2021/12/14 08:25:41;;;;;;;48.83;27.77;;;7.90;99.90;;;;;;4975880;28;20134;-45
2021/12/14 08:28:08;;;;;;;50.00;28.23;;;7.80;99.90;;;;;;4975856;28;20491;-45
2021/12/14 08:30:36;;;;;;;48.83;27.67;;;7.80;99.90;;;;;;4975065;28;20050;-47
2021/12/14 08:33:03;;;;;;;52.00;29.02;;;7.90;99.90;;;;;;4974291;28;20023;-49
2021/12/14 08:35:29;;;;;;;59.33;29.52;;;7.80;99.90;;;;;;4974434;28;20030;-49
2021/12/14 08:37:59;;;;;;;59.60;30.17;;;7.80;99.90;;;;;;4974443;28;20372;-49
2021/12/14 08:40:42;;;;;;;54.65;28.45;;;7.80;99.90;;;;;;4975231;28;20027;-48
2021/12/14 08:43:22;;;;;;;46.78;28.15;;;7.80;99.90;;;;;;4975620;28;20038;-48
2021/12/14 08:45:58;;;;;;;47.83;27.90;;;7.80;99.90;;;;;;4975717;28;20057;-53
2021/12/14 08:48:32;;;;;;;39.63;24.48;;;7.80;99.90;;;;;;4975567;28;20019;-46
2021/12/14 08:51:14;;;;;;;42.67;24.03;;;7.70;99.90;;;;;;4975027;28;20041;-47
2021/12/14 08:53:46;;;;;;;30.90;21.75;;;7.80;99.90;;;;;;4975384;28;20023;-49
2021/12/14 08:56:13;;;;;;;32.65;22.23;;;7.80;99.90;;;;;;4975223;28;20507;-49
2021/12/14 08:58:40;;;;;;;34.58;21.75;;;7.70;99.90;;;;;;4975512;28;20030;-43
2021/12/14 09:01:12;;;;;;;34.08;22.55;;;7.80;99.90;;;;;;4974725;28;20106;-50
2021/12/14 09:03:44;;;;;;;37.50;20.80;;;7.70;99.90;;;;;;4975033;28;20034;-51
2021/12/14 09:06:13;;;;;;;37.42;20.80;;;7.70;99.90;;;;;;4974949;28;20026;-44
2021/12/14 09:08:40;;;;;;;37.97;21.13;;;7.70;99.90;;;;;;4974892;28;20030;-50
2021/12/14 09:11:08;;;;;;;31.85;20.70;;;7.70;99.90;;;;;;4974529;28;20078;-45
2021/12/14 09:13:35;;;;;;;32.28;19.75;;;7.70;99.90;;;;;;4974524;28;20030;-48
2021/12/14 09:16:16;;;;;;;29.38;21.20;;;7.70;99.90;;;;;;4973678;28;20653;-46
2021/12/14 09:18:45;;;;;;;34.50;19.92;;;7.70;99.90;;;;;;4966119;28;20023;-50
2021/12/14 09:21:17;;;;;;;29.88;18.90;;;7.80;99.90;;;;;;4955106;28;20027;-49
2021/12/14 09:23:47;;;;;;;32.53;19.50;;;7.70;99.90;;;;;;4968191;28;20031;-51
2021/12/14 09:26:17;;;;;;;29.10;19.25;;;7.80;99.90;;;;;;4974559;28;20033;-47
2021/12/14 09:28:44;;;;;;;31.30;19.92;;;7.80;99.90;;;;;;4974704;28;20446;-52
2021/12/14 09:31:13;;;;;;;34.05;21.10;;;7.80;99.90;;;;;;4973844;28;20023;-48
2021/12/14 09:33:41;;;;;;;35.63;20.77;;;7.80;99.90;;;;;;4973989;28;20058;-50
2021/12/14 09:36:12;;;;;;;31.70;21.08;;;7.90;99.90;;;;;;4974304;28;20572;-49
2021/12/14 09:38:57;;;;;;;31.75;20.58;;;7.80;99.90;;;;;;4974589;28;20038;-48
2021/12/14 09:41:26;;;;;;;31.95;20.80;;;7.90;99.90;;;;;;4973929;28;20414;-52
2021/12/14 09:43:54;;;;;;;31.00;19.63;;;7.90;99.90;;;;;;4973850;28;20525;-51
2021/12/14 09:46:20;;;;;;;36.75;22.13;;;7.80;99.90;;;;;;4974355;28;20030;-51
2021/12/14 09:48:50;;;;;;;35.75;22.55;;;7.80;99.90;;;;;;4971055;28;20093;-47
2021/12/14 09:51:21;;;;;;;38.72;22.70;;;7.90;99.90;;;;;;4971663;28;20041;-50
2021/12/14 09:53:50;;;;;;;34.88;21.92;;;7.90;99.90;;;;;;4973436;28;20058;-52
2021/12/14 09:56:18;;;;;;;29.80;21.58;;;8.00;99.90;;;;;;4969974;28;20026;-47
2021/12/14 09:58:50;;;;;;;32.75;20.52;;;7.90;99.90;;;;;;4974317;28;20137;-49
2021/12/14 10:01:23;;;;;;;30.75;20.48;;;7.90;99.90;;;;;;4973301;28;20402;-47
2021/12/14 10:03:54;;;;;;;32.78;20.85;;;7.90;99.90;;;;;;4960630;28;20053;-54
2021/12/14 10:06:25;;;;;;;31.45;19.70;;;7.90;99.90;;;;;;4974233;28;20031;-53
2021/12/14 10:08:58;;;;;;;33.83;20.08;;;7.80;99.90;;;;;;4973801;28;20069;-51
2021/12/14 10:12:17;;;;;;;34.78;21.08;;;7.80;99.90;;;;;;4971868;28;20423;-47
2021/12/14 10:14:24;;;;;;;34.80;21.70;;;7.80;99.90;;;;;;4954464;29;20082;-52
2021/12/14 10:16:50;;;;;;;31.42;20.98;;;7.90;99.90;;;;;;4967436;28;20106;-54
2021/12/14 10:19:20;;;;;;;37.00;22.85;;;8.00;99.90;;;;;;4973415;28;20069;-52
2021/12/14 10:21:50;;;;;;;33.10;21.05;;;8.00;99.90;;;;;;4973266;28;20026;-53
2021/12/14 10:24:16;;;;;;;40.92;23.45;;;7.90;99.90;;;;;;4973811;28;20096;-51
2021/12/14 10:26:46;;;;;;;42.35;25.33;;;7.90;99.90;;;;;;4972659;28;20501;-51
2021/12/14 10:29:13;;;;;;;40.10;24.35;;;8.00;99.90;;;;;;4973800;28;20517;-52
2021/12/14 10:31:43;;;;;;;35.60;22.00;;;7.90;99.90;;;;;;4973595;28;20027;-51
2021/12/14 10:34:17;;;;;;;36.80;24.27;;;7.90;99.90;;;;;;4974217;28;20110;-50
2021/12/14 10:36:47;;;;;;;35.38;22.60;;;8.00;99.90;;;;;;4973664;28;20099;-52
2021/12/14 10:44:54;;;;;;;43.20;24.67;;;8.00;99.90;;;;;;4973322;28;20049;-47
2021/12/14 10:47:23;;;;;;;38.10;23.42;;;8.00;99.90;;;;;;4973105;28;20089;-52
2021/12/14 10:49:50;;;;;;;43.88;24.55;;;7.90;99.90;;;;;;4972850;28;20104;-49
2021/12/14 10:52:20;;;;;;;35.05;23.15;;;7.80;99.90;;;;;;4973209;28;20022;-51
2021/12/14 10:54:48;;;;;;;44.30;25.40;;;7.90;99.90;;;;;;4973245;28;20030;-52
2021/12/14 10:57:18;;;;;;;36.85;22.98;;;7.90;99.90;;;;;;4973191;28;20050;-49
2021/12/14 10:59:47;;;;;;;36.38;23.02;;;7.80;99.90;;;;;;4972802;28;20062;-54
2021/12/14 11:02:13;;;;;;;38.05;22.83;;;7.70;99.90;;;;;;4972925;28;20097;-49
2021/12/14 11:04:51;;;;;;;41.53;23.75;;;7.80;99.90;;;;;;4972988;28;20030;-54
2021/12/14 11:07:22;;;;;;;39.03;23.45;;;7.80;99.90;;;;;;4973191;28;20026;-51
2021/12/14 11:09:53;;;;;;;39.30;24.45;;;7.80;99.90;;;;;;4972646;28;20130;-48
2021/12/14 11:12:40;;;;;;;40.80;23.33;;;7.90;99.90;;;;;;4972818;28;20031;-49
2021/12/14 11:15:11;;;;;;;42.42;24.40;;;8.00;99.90;;;;;;4973201;28;20053;-47
2021/12/14 11:20:32;;;;;;;41.50;23.05;;;7.90;99.90;;;;;;4972812;28;20158;-50
2021/12/14 11:23:22;;;;;;;46.15;24.77;;;8.00;99.90;;;;;;4972444;28;20027;-49
2021/12/14 11:26:06;;;;;;;42.28;25.15;;;8.00;99.90;;;;;;4967640;28;20043;-51
2021/12/14 11:28:39;;;;;;;45.00;26.92;;;8.00;99.90;;;;;;4970920;28;20030;-48
2021/12/14 11:31:14;;;;;;;44.45;24.42;;;8.00;99.90;;;;;;4971279;28;20496;-47
2021/12/14 11:33:53;;;;;;;49.17;26.77;;;7.90;99.90;;;;;;4972390;28;20042;-50
2021/12/14 11:36:26;;;;;;;47.05;27.52;;;7.90;99.90;;;;;;4971584;28;20566;-49
2021/12/14 11:39:05;;;;;;;47.90;27.00;;;7.90;99.90;;;;;;4971737;28;20630;-48
2021/12/14 11:41:51;;;;;;;51.13;27.58;;;8.00;99.90;;;;;;4972596;28;20105;-53
2021/12/14 11:44:40;;;;;;;48.30;27.20;;;8.00;99.90;;;;;;4972658;28;20027;-49
2021/12/14 11:50:06;;;;;;;55.75;27.30;;;7.90;99.90;;;;;;4972454;28;20027;-51
2021/12/14 11:52:42;;;;;;;51.80;27.33;;;7.80;99.90;;;;;;4972552;28;20053;-52
2021/12/14 11:55:17;;;;;;;53.90;29.15;;;7.80;99.90;;;;;;4971307;28;20396;-48
2021/12/14 11:57:44;;;;;;;79.05;47.85;;;7.80;99.90;;;;;;4972518;28;20062;-53
2021/12/14 12:00:15;;;;;;;82.30;44.75;;;7.70;99.90;;;;;;4972219;28;20027;-49
2021/12/14 12:02:41;;;;;;;53.60;27.92;;;7.70;99.90;;;;;;4972236;28;20093;-48
2021/12/14 12:05:20;;;;;;;46.42;25.48;;;7.60;99.90;;;;;;4972451;28;20030;-49
2021/12/14 12:10:47;;;;;;;52.60;27.23;;;7.80;99.90;;;;;;4972013;28;20089;-48
2021/12/14 12:13:12;;;;;;;47.63;27.48;;;7.90;99.90;;;;;;4972206;28;20030;-49
2021/12/14 12:15:42;;;;;;;42.92;25.42;;;7.90;99.90;;;;;;4972336;28;20027;-50
2021/12/14 12:18:08;;;;;;;46.35;26.80;;;7.90;99.90;;;;;;4972342;28;20031;-46
2021/12/14 12:20:38;;;;;;;50.58;25.75;;;7.90;99.90;;;;;;4972022;28;20375;-50
2021/12/14 12:23:10;;;;;;;49.65;26.35;;;7.80;99.90;;;;;;4971030;28;20023;-49
2021/12/14 12:25:38;;;;;;;49.15;26.25;;;7.70;99.90;;;;;;4972325;28;20027;-55
2021/12/14 12:28:23;;;;;;;50.75;26.30;;;7.80;99.90;;;;;;4972369;28;20026;-50
2021/12/14 12:30:52;;;;;;;51.03;26.60;;;7.80;99.90;;;;;;4971135;28;20031;-51
2021/12/14 12:33:29;;;;;;;48.42;26.25;;;7.70;99.90;;;;;;4972555;28;20027;-50
2021/12/14 12:36:28;;;;;;;57.53;28.52;;;7.70;99.90;;;;;;4972277;28;20019;-51
2021/12/14 12:39:10;;;;;;;49.60;27.08;;;7.70;99.90;;;;;;4969731;28;20038;-51
2021/12/14 12:41:48;;;;;;;46.33;26.58;;;7.70;99.90;;;;;;4971589;28;20046;-55
2021/12/14 12:44:33;;;;;;;43.75;24.73;;;7.80;99.90;;;;;;4971972;28;20438;-50
2021/12/14 12:47:14;;;;;;;51.75;27.08;;;7.80;99.90;;;;;;4971639;28;20034;-48
2021/12/14 12:49:49;;;;;;;45.97;26.20;;;7.80;99.90;;;;;;4954321;28;20033;-52
2021/12/14 12:52:26;;;;;;;51.38;28.38;;;7.80;99.90;;;;;;4971048;28;20034;-52
2021/12/14 12:54:56;;;;;;;46.05;25.15;;;7.80;99.90;;;;;;4973662;28;20110;-49
2021/12/14 12:57:37;;;;;;;42.08;25.88;;;7.80;99.90;;;;;;4966180;28;20011;-50
2021/12/14 13:00:09;;;;;;;51.08;25.75;;;7.90;99.90;;;;;;4964809;28;20034;-49
2021/12/14 13:02:40;;;;;;;49.75;25.88;;;7.90;99.90;;;;;;4975361;28;20525;-51
2021/12/14 13:05:21;;;;;;;47.72;25.77;;;7.90;99.90;;;;;;4974266;28;20045;-51
2021/12/14 13:07:55;;;;;;;41.42;25.02;;;7.90;99.90;;;;;;4975250;28;20027;-53
2021/12/14 13:10:30;;;;;;;42.87;24.40;;;7.80;99.90;;;;;;4957384;28;20038;-59
2021/12/14 13:13:13;;;;;;;47.72;27.08;;;7.80;99.90;;;;;;4972838;28;20681;-52
2021/12/14 13:15:43;;;;;;;45.35;25.27;;;7.90;99.90;;;;;;4973636;28;20023;-49
2021/12/14 13:18:29;;;;;;;47.58;25.27;;;7.80;99.90;;;;;;4968819;28;20030;-46
2021/12/14 13:21:04;;;;;;;40.45;23.55;;;7.70;99.90;;;;;;4974818;28;20379;-51
2021/12/14 13:23:46;;;;;;;46.05;25.33;;;7.70;99.90;;;;;;4974987;28;20031;-46
2021/12/14 13:26:28;;;;;;;42.25;24.63;;;7.70;99.90;;;;;;4973670;28;20105;-44
2021/12/14 13:29:00;;;;;;;44.72;24.20;;;7.70;99.90;;;;;;4974198;28;20030;-50
2021/12/14 13:31:42;;;;;;;42.33;23.35;;;7.70;99.90;;;;;;4974201;28;20027;-48
2021/12/14 13:34:26;;;;;;;50.05;24.38;;;7.70;99.90;;;;;;4974913;28;20387;-46
2021/12/14 13:36:53;;;;;;;40.13;22.92;;;7.70;99.90;;;;;;4974661;28;20034;-47
2021/12/14 13:39:20;;;;;;;49.80;24.95;;;7.70;99.90;;;;;;4974634;28;20550;-44
2021/12/14 13:42:03;;;;;;;46.72;24.30;;;7.70;99.90;;;;;;4994599;23;20097;-46
2021/12/14 13:44:37;;;;;;;43.67;23.95;;;7.70;99.90;;;;;;4994580;28;20023;-47
2021/12/14 13:47:06;;;;;;;39.85;22.67;;;7.70;99.90;;;;;;4994296;28;20046;-45
2021/12/14 13:49:33;;;;;;;43.85;25.58;;;7.70;99.90;;;;;;4993748;28;20046;-49
2021/12/14 13:51:59;;;;;;;44.55;24.75;;;7.70;99.90;;;;;;4992880;28;20030;-46
2021/12/14 13:54:25;;;;;;;42.33;24.15;;;7.70;99.90;;;;;;4994130;28;20474;-48